Time;durP1;ratioP1;P1;durP2;ratioP2;P2;SDS_P1;SDS_P2;PMS_P1;PMS_P2;Temp;Humidity;BMP_temperature;BMP_pressure;BME280_temperature;BME280_humidity;BME280_pressure;Samples;Min_cycle;Max_cycle;Signal;HPM_P1;HPM_P2
2023/08/06 00:02:20;;;;;;;25.10;17.35;;;17.30;99.90;;;;;;5052688;28;20057;-78
2023/08/06 00:04:45;;;;;;;19.85;15.32;;;17.30;99.90;;;;;;5052201;28;20131;-82
2023/08/06 00:07:11;;;;;;;17.88;14.80;;;17.30;99.90;;;;;;5051283;28;20021;-78
2023/08/06 00:09:37;;;;;;;17.23;13.13;;;17.30;99.90;;;;;;5050907;28;20046;-78
2023/08/06 00:12:02;;;;;;;12.98;11.32;;;17.30;99.90;;;;;;5052498;28;20121;-77
2023/08/06 00:14:28;;;;;;;13.93;11.75;;;17.30;99.90;;;;;;5052109;28;20518;-78
2023/08/06 00:16:54;;;;;;;11.45;10.07;;;17.20;99.90;;;;;;5051382;28;20033;-78
2023/08/06 00:19:19;;;;;;;8.45;7.40;;;17.30;99.90;;;;;;5052191;28;20029;-77
2023/08/06 00:21:45;;;;;;;8.05;7.25;;;17.30;99.90;;;;;;5054721;28;20017;-82
2023/08/06 00:24:10;;;;;;;7.47;6.80;;;17.30;99.90;;;;;;5056414;28;20029;-78
2023/08/06 00:26:36;;;;;;;8.02;7.22;;;17.30;99.90;;;;;;5056408;28;20052;-78
2023/08/06 00:29:02;;;;;;;7.97;7.28;;;17.30;99.90;;;;;;5054421;28;20044;-77
2023/08/06 00:31:27;;;;;;;8.85;7.93;;;17.30;99.90;;;;;;5056343;28;20425;-77
2023/08/06 00:33:53;;;;;;;8.68;7.97;;;17.30;99.90;;;;;;5055965;28;20017;-77
2023/08/06 00:36:18;;;;;;;8.40;7.60;;;17.30;99.90;;;;;;5055090;28;20032;-76
2023/08/06 00:38:44;;;;;;;8.63;7.72;;;17.30;99.90;;;;;;5055976;28;20025;-82
2023/08/06 00:41:10;;;;;;;7.88;6.97;;;17.30;99.90;;;;;;5056383;28;20092;-77
2023/08/06 00:43:35;;;;;;;9.45;8.55;;;17.30;99.90;;;;;;5054349;28;20021;-76
2023/08/06 00:46:01;;;;;;;10.73;9.52;;;17.20;99.90;;;;;;5054805;28;20470;-76
2023/08/06 00:48:27;;;;;;;11.57;9.85;;;17.20;99.90;;;;;;5055684;28;20029;-76
2023/08/06 00:50:53;;;;;;;10.73;9.63;;;17.10;99.90;;;;;;5055740;28;20034;-76
2023/08/06 00:53:19;;;;;;;12.98;10.70;;;17.10;99.90;;;;;;5055437;28;20044;-82
2023/08/06 00:55:45;;;;;;;13.10;11.68;;;17.10;99.90;;;;;;5053220;28;20099;-77
2023/08/06 00:58:11;;;;;;;11.30;9.88;;;17.00;99.90;;;;;;5055825;28;20037;-77
2023/08/06 01:00:38;;;;;;;12.27;11.00;;;17.00;99.90;;;;;;5055672;28;20031;-82
2023/08/06 01:03:03;;;;;;;12.70;11.05;;;17.00;99.90;;;;;;5054923;28;20116;-82
2023/08/06 01:05:29;;;;;;;12.13;10.68;;;17.00;99.90;;;;;;5055567;28;20055;-82
2023/08/06 01:08:14;;;;;;;13.18;11.15;;;17.00;99.90;;;;;;5055250;28;20040;-78
2023/08/06 01:11:19;;;;;;;13.75;10.88;;;17.00;99.90;;;;;;5044903;28;20048;-82
2023/08/06 01:13:54;;;;;;;12.40;10.68;;;17.00;99.90;;;;;;5039239;28;20049;-82
2023/08/06 01:16:21;;;;;;;13.00;11.20;;;17.00;99.90;;;;;;5050118;28;20177;-77
2023/08/06 01:18:49;;;;;;;13.32;10.98;;;17.00;99.90;;;;;;5055391;28;20024;-77
2023/08/06 01:21:18;;;;;;;13.93;12.27;;;17.00;99.90;;;;;;5055361;28;20075;-78
2023/08/06 01:23:46;;;;;;;13.27;11.88;;;17.10;99.90;;;;;;5055261;28;20032;-78
2023/08/06 01:26:26;;;;;;;11.95;10.27;;;17.10;99.90;;;;;;5055140;28;20017;-78
2023/08/06 01:29:00;;;;;;;11.77;10.57;;;17.10;99.90;;;;;;5053846;28;20043;-83
2023/08/06 01:31:37;;;;;;;11.40;9.68;;;17.10;99.90;;;;;;5042137;28;20412;-78
2023/08/06 01:34:05;;;;;;;10.27;9.27;;;17.10;99.90;;;;;;5055124;28;20040;-79
2023/08/06 01:36:32;;;;;;;13.23;11.10;;;17.20;99.90;;;;;;5053794;28;20021;-78
2023/08/06 01:38:58;;;;;;;11.52;10.32;;;17.20;99.90;;;;;;5053548;28;20036;-78
2023/08/06 01:41:23;;;;;;;11.82;10.63;;;17.20;99.90;;;;;;5054563;28;20029;-78
2023/08/06 01:43:49;;;;;;;10.63;9.52;;;17.20;99.90;;;;;;5054886;28;20017;-83
2023/08/06 01:46:15;;;;;;;12.43;10.48;;;17.20;99.90;;;;;;5053225;28;20021;-83
2023/08/06 01:48:40;;;;;;;10.48;9.38;;;17.30;99.90;;;;;;5037980;28;20028;-83
2023/08/06 01:51:07;;;;;;;10.77;9.60;;;17.30;99.90;;;;;;5052865;28;20063;-83
2023/08/06 01:53:33;;;;;;;12.57;10.15;;;17.30;99.90;;;;;;5054564;28;20022;-83
2023/08/06 01:55:59;;;;;;;11.82;9.65;;;17.30;99.90;;;;;;5053424;28;20021;-83
2023/08/06 01:58:24;;;;;;;13.70;11.05;;;17.30;99.90;;;;;;5039887;28;20017;-83
2023/08/06 02:00:50;;;;;;;13.93;11.18;;;17.30;99.90;;;;;;5038367;28;20116;-77
2023/08/06 02:03:15;;;;;;;12.40;11.18;;;17.30;99.90;;;;;;5054230;28;20037;-78
2023/08/06 02:05:41;;;;;;;14.20;11.25;;;17.40;99.90;;;;;;5053100;28;20021;-83
2023/08/06 02:08:07;;;;;;;12.88;10.55;;;17.30;99.90;;;;;;5053282;28;20159;-78
2023/08/06 02:10:33;;;;;;;12.55;11.25;;;17.30;99.90;;;;;;5054298;28;20123;-76
2023/08/06 02:12:58;;;;;;;15.23;12.05;;;17.40;99.90;;;;;;5054447;28;20518;-77
2023/08/06 02:15:24;;;;;;;12.20;11.00;;;17.40;99.90;;;;;;5054215;28;20023;-77
2023/08/06 02:17:50;;;;;;;12.95;11.60;;;17.40;99.90;;;;;;5054381;28;20020;-77
2023/08/06 02:20:15;;;;;;;13.57;10.88;;;17.40;99.90;;;;;;5053055;28;20017;-82
2023/08/06 02:22:41;;;;;;;12.55;11.32;;;17.40;99.90;;;;;;5051468;28;20433;-78
2023/08/06 02:25:07;;;;;;;15.13;12.18;;;17.40;99.90;;;;;;5040784;28;20009;-83
2023/08/06 02:27:32;;;;;;;15.10;11.88;;;17.50;99.90;;;;;;5052690;28;20455;-82
2023/08/06 02:29:58;;;;;;;13.25;11.85;;;17.40;99.90;;;;;;5053914;28;20108;-78
2023/08/06 02:32:24;;;;;;;13.95;11.40;;;17.50;99.90;;;;;;5054143;28;20025;-83
2023/08/06 02:34:49;;;;;;;13.07;11.50;;;17.40;99.90;;;;;;5054104;28;20096;-82
2023/08/06 02:37:15;;;;;;;15.73;12.52;;;17.40;99.90;;;;;;5052332;28;20017;-83
2023/08/06 02:39:40;;;;;;;13.65;12.10;;;17.40;99.90;;;;;;5054031;28;20082;-82
2023/08/06 02:42:07;;;;;;;14.90;11.90;;;17.40;99.90;;;;;;5053538;28;20025;-82
2023/08/06 02:44:33;;;;;;;17.92;13.38;;;17.50;99.90;;;;;;5052099;28;20438;-82
2023/08/06 02:46:59;;;;;;;14.80;12.52;;;17.40;99.90;;;;;;5040265;28;20025;-82
2023/08/06 02:49:25;;;;;;;17.02;13.10;;;17.50;99.90;;;;;;5053775;28;20037;-77
2023/08/06 02:51:51;;;;;;;17.85;13.82;;;17.50;99.90;;;;;;5053484;28;20032;-82
2023/08/06 02:54:17;;;;;;;16.73;13.02;;;17.50;99.90;;;;;;5052299;28;20017;-78
2023/08/06 02:56:44;;;;;;;18.45;13.25;;;17.40;99.90;;;;;;5052148;28;20021;-77
2023/08/06 02:59:11;;;;;;;16.48;13.10;;;17.40;99.90;;;;;;5053309;28;20020;-77
2023/08/06 03:01:36;;;;;;;20.35;14.02;;;17.40;99.90;;;;;;5053209;28;20024;-77
2023/08/06 03:04:02;;;;;;;19.65;14.38;;;17.40;99.90;;;;;;5053289;28;20045;-78
2023/08/06 03:06:28;;;;;;;15.65;13.63;;;17.40;99.90;;;;;;5051460;28;20043;-81
2023/08/06 03:08:53;;;;;;;18.10;13.55;;;17.50;99.90;;;;;;5051995;28;20029;-81
2023/08/06 03:11:19;;;;;;;22.08;14.13;;;17.40;99.90;;;;;;5053154;28;20024;-81
2023/08/06 03:13:45;;;;;;;19.30;14.13;;;17.40;99.90;;;;;;5052004;28;20028;-81
2023/08/06 03:16:10;;;;;;;19.23;14.32;;;17.40;99.90;;;;;;5039675;28;20036;-77
2023/08/06 03:18:36;;;;;;;29.75;16.02;;;17.40;99.90;;;;;;5051528;28;20448;-77
2023/08/06 03:21:01;;;;;;;16.20;13.07;;;17.40;99.90;;;;;;5052940;28;20031;-78
2023/08/06 03:23:27;;;;;;;20.35;15.45;;;17.40;99.90;;;;;;5051796;28;20024;-82
2023/08/06 03:25:53;;;;;;;19.65;15.65;;;17.50;99.90;;;;;;5051489;28;20486;-77
2023/08/06 03:28:18;;;;;;;21.08;14.65;;;17.40;99.90;;;;;;5052913;28;20032;-77
2023/08/06 03:30:44;;;;;;;20.98;15.85;;;17.40;99.90;;;;;;5052815;28;20489;-77
2023/08/06 03:33:10;;;;;;;19.23;14.50;;;17.40;99.90;;;;;;5051730;28;20017;-77
2023/08/06 03:35:35;;;;;;;21.75;14.38;;;17.40;99.90;;;;;;5052644;28;20017;-81
2023/08/06 03:38:01;;;;;;;21.23;14.77;;;17.40;99.90;;;;;;5051578;28;20026;-77
2023/08/06 03:40:27;;;;;;;25.05;16.88;;;17.40;99.90;;;;;;5041934;28;20025;-77
2023/08/06 03:42:52;;;;;;;34.92;17.50;;;17.40;99.90;;;;;;5051421;28;20027;-82
2023/08/06 03:45:18;;;;;;;25.08;16.95;;;17.40;99.90;;;;;;5051279;28;20108;-82
2023/08/06 03:47:43;;;;;;;36.30;17.42;;;17.50;99.90;;;;;;5052612;28;20024;-77
2023/08/06 03:50:09;;;;;;;45.65;17.75;;;17.50;99.90;;;;;;5052531;28;20035;-77
2023/08/06 03:52:35;;;;;;;40.50;18.92;;;17.40;99.90;;;;;;5052591;28;20040;-82
2023/08/06 03:55:01;;;;;;;26.88;16.70;;;17.40;99.90;;;;;;5052431;28;20067;-77
2023/08/06 03:57:26;;;;;;;24.52;15.88;;;17.40;99.90;;;;;;5050009;28;20467;-77
2023/08/06 03:59:52;;;;;;;48.95;17.45;;;17.40;99.90;;;;;;5052085;28;20530;-81
2023/08/06 04:02:17;;;;;;;63.85;19.35;;;17.40;99.90;;;;;;5052593;28;20029;-78
2023/08/06 04:04:43;;;;;;;20.52;15.23;;;17.40;99.90;;;;;;5052633;28;20548;-77
2023/08/06 04:07:09;;;;;;;36.78;17.48;;;17.40;99.90;;;;;;5052222;28;20067;-77
2023/08/06 04:09:50;;;;;;;43.83;16.92;;;17.40;99.90;;;;;;5052117;28;20379;-81
2023/08/06 04:12:16;;;;;;;28.20;15.57;;;17.50;99.90;;;;;;5052176;28;20402;-77
2023/08/06 04:14:41;;;;;;;23.52;14.93;;;17.40;99.90;;;;;;5052449;28;20032;-81
2023/08/06 04:17:07;;;;;;;39.72;17.65;;;17.50;99.90;;;;;;5050862;28;20478;-76
2023/08/06 04:19:33;;;;;;;40.28;17.20;;;17.50;99.90;;;;;;5052351;28;20059;-76
2023/08/06 04:21:58;;;;;;;39.50;16.20;;;17.50;99.90;;;;;;5052154;28;20535;-82
2023/08/06 04:24:24;;;;;;;19.67;14.20;;;17.50;99.90;;;;;;5052370;28;20021;-78
2023/08/06 04:26:49;;;;;;;52.92;18.30;;;17.50;99.90;;;;;;5050805;28;20029;-78
2023/08/06 04:29:15;;;;;;;35.60;16.50;;;17.50;99.90;;;;;;5051303;28;20505;-78
2023/08/06 04:31:40;;;;;;;22.58;15.55;;;17.50;99.90;;;;;;5055063;28;20178;-78
2023/08/06 04:34:07;;;;;;;30.50;15.60;;;17.50;99.90;;;;;;5052332;28;20025;-81
2023/08/06 04:36:33;;;;;;;24.15;14.95;;;17.50;99.90;;;;;;5052164;28;20355;-78
2023/08/06 04:38:59;;;;;;;29.85;15.10;;;17.50;99.90;;;;;;5052176;28;20025;-83
2023/08/06 04:41:24;;;;;;;29.02;15.15;;;17.60;99.90;;;;;;5052016;28;20028;-82
2023/08/06 04:43:50;;;;;;;23.52;13.82;;;17.50;99.90;;;;;;5052057;28;20021;-78
2023/08/06 04:46:15;;;;;;;22.77;15.60;;;17.60;99.90;;;;;;5051778;28;20053;-82
2023/08/06 04:48:41;;;;;;;17.38;13.82;;;17.60;99.90;;;;;;5052060;28;20038;-78
2023/08/06 04:51:06;;;;;;;21.00;13.75;;;17.60;99.90;;;;;;5052046;28;20021;-78
2023/08/06 04:53:32;;;;;;;29.95;17.25;;;17.60;99.90;;;;;;5052028;28;20023;-82
2023/08/06 04:55:58;;;;;;;22.30;15.52;;;17.60;99.90;;;;;;5051848;28;20017;-82
2023/08/06 04:58:23;;;;;;;21.73;13.75;;;17.70;99.90;;;;;;5050099;28;20017;-78
2023/08/06 05:00:49;;;;;;;19.08;13.23;;;17.70;99.90;;;;;;5052023;28;20453;-82
2023/08/06 05:03:15;;;;;;;18.73;13.25;;;17.70;99.90;;;;;;5051056;28;20167;-82
2023/08/06 05:05:41;;;;;;;18.20;13.52;;;17.70;99.90;;;;;;5052184;28;20025;-82
2023/08/06 05:08:07;;;;;;;18.05;12.48;;;17.70;99.90;;;;;;5055481;28;20378;-78
2023/08/06 05:10:32;;;;;;;17.83;12.93;;;17.70;99.90;;;;;;5055479;28;20035;-82
2023/08/06 05:12:58;;;;;;;25.42;15.02;;;17.70;99.90;;;;;;5053990;28;20031;-77
2023/08/06 05:15:25;;;;;;;22.52;14.70;;;17.70;99.90;;;;;;5053991;28;20023;-77
2023/08/06 05:17:51;;;;;;;24.50;13.85;;;17.80;99.90;;;;;;5054998;28;20218;-77
2023/08/06 05:20:17;;;;;;;19.90;13.75;;;17.80;99.90;;;;;;5055849;28;20537;-81
2023/08/06 05:22:43;;;;;;;20.70;13.77;;;17.80;99.90;;;;;;5055174;28;20020;-82
2023/08/06 05:25:08;;;;;;;23.42;15.43;;;17.90;99.90;;;;;;5054009;28;20067;-77
2023/08/06 05:27:34;;;;;;;23.77;14.95;;;17.90;99.90;;;;;;5055113;28;20029;-82
2023/08/06 05:30:00;;;;;;;21.38;13.68;;;18.00;99.90;;;;;;5055172;28;20117;-77
2023/08/06 05:32:25;;;;;;;18.05;12.85;;;17.90;99.90;;;;;;5053688;28;20024;-82
2023/08/06 05:34:51;;;;;;;22.02;13.85;;;18.00;99.90;;;;;;5055019;28;20036;-82
2023/08/06 05:37:17;;;;;;;17.58;12.30;;;18.00;99.90;;;;;;5055019;28;20018;-78
2023/08/06 05:39:42;;;;;;;20.23;13.70;;;18.00;99.90;;;;;;5055072;28;20036;-78
2023/08/06 05:42:08;;;;;;;18.20;13.10;;;18.00;99.90;;;;;;5053149;28;20016;-77
2023/08/06 05:44:33;;;;;;;23.63;14.45;;;18.00;99.90;;;;;;5054731;28;20391;-77
2023/08/06 05:46:59;;;;;;;22.27;13.18;;;18.00;99.90;;;;;;5046881;28;20029;-82
2023/08/06 05:49:25;;;;;;;18.40;12.38;;;18.10;99.90;;;;;;5044202;28;20120;-82
2023/08/06 05:51:53;;;;;;;22.10;14.60;;;18.00;99.90;;;;;;5048722;28;20150;-82
2023/08/06 05:54:18;;;;;;;22.13;13.90;;;18.10;99.90;;;;;;5053300;28;20021;-82
2023/08/06 05:56:44;;;;;;;23.77;15.10;;;18.10;99.90;;;;;;5048426;28;20024;-82
2023/08/06 05:59:10;;;;;;;19.85;14.43;;;18.10;99.90;;;;;;5042426;28;20022;-83
2023/08/06 06:01:36;;;;;;;20.48;14.55;;;18.10;99.90;;;;;;5042599;28;20017;-82
2023/08/06 06:04:01;;;;;;;19.27;12.82;;;18.10;99.90;;;;;;5048517;28;20111;-82
2023/08/06 06:06:27;;;;;;;18.65;13.60;;;18.10;99.90;;;;;;5049762;28;20021;-82
2023/08/06 06:08:53;;;;;;;18.90;12.80;;;18.10;99.90;;;;;;5038319;28;20461;-83
2023/08/06 06:11:21;;;;;;;18.15;12.30;;;18.10;99.90;;;;;;5037617;28;20049;-83
2023/08/06 06:13:49;;;;;;;28.85;15.18;;;18.10;99.90;;;;;;5046969;28;20029;-83
2023/08/06 06:16:14;;;;;;;20.08;13.90;;;18.10;99.90;;;;;;5039734;28;20513;-82
2023/08/06 06:18:40;;;;;;;18.77;12.90;;;18.10;99.90;;;;;;5033950;28;20041;-83
2023/08/06 06:21:05;;;;;;;19.17;12.20;;;18.20;99.90;;;;;;5039115;28;20426;-82
2023/08/06 06:23:31;;;;;;;18.35;12.27;;;18.20;99.90;;;;;;5051542;28;20025;-83
2023/08/06 06:25:57;;;;;;;17.38;12.93;;;18.20;99.90;;;;;;5046091;28;20024;-83
2023/08/06 06:28:22;;;;;;;19.92;12.90;;;18.20;99.90;;;;;;5041839;28;20044;-82
2023/08/06 06:30:48;;;;;;;16.60;11.90;;;18.20;99.90;;;;;;5050222;28;20092;-82
2023/08/06 06:33:13;;;;;;;16.40;11.75;;;18.20;99.90;;;;;;5050623;28;20514;-82
2023/08/06 06:35:39;;;;;;;20.20;13.85;;;18.10;99.90;;;;;;5044265;28;20383;-82
2023/08/06 06:38:04;;;;;;;16.48;12.18;;;18.20;99.90;;;;;;5053151;28;20032;-82
2023/08/06 06:40:30;;;;;;;14.38;11.82;;;18.20;99.90;;;;;;5045672;28;20024;-82
2023/08/06 06:42:56;;;;;;;15.90;11.48;;;18.20;99.90;;;;;;5053311;28;20025;-82
2023/08/06 06:45:22;;;;;;;12.60;10.73;;;18.20;99.90;;;;;;5051954;28;20156;-82
2023/08/06 06:47:47;;;;;;;12.60;10.85;;;18.30;99.90;;;;;;5049743;28;20032;-82
2023/08/06 06:50:13;;;;;;;14.18;10.90;;;18.30;99.90;;;;;;5043008;28;20478;-82
2023/08/06 06:52:38;;;;;;;12.05;10.55;;;18.30;99.90;;;;;;5040898;28;20022;-82
2023/08/06 06:55:04;;;;;;;11.60;10.40;;;18.30;99.90;;;;;;5049625;28;20028;-82
2023/08/06 06:57:30;;;;;;;9.95;8.95;;;18.30;99.90;;;;;;5044690;28;20524;-82
2023/08/06 06:59:56;;;;;;;12.27;9.85;;;18.30;99.90;;;;;;5051382;28;20029;-76
2023/08/06 07:02:21;;;;;;;11.20;9.88;;;18.30;99.90;;;;;;5045699;28;20032;-81
2023/08/06 07:04:47;;;;;;;10.82;9.73;;;18.30;99.90;;;;;;5052702;28;20102;-80
2023/08/06 07:07:12;;;;;;;11.88;10.02;;;18.30;99.90;;;;;;5048700;28;20025;-83
2023/08/06 07:09:38;;;;;;;15.77;11.07;;;18.30;99.90;;;;;;5044114;28;20044;-82
2023/08/06 07:12:04;;;;;;;14.27;11.13;;;18.30;99.90;;;;;;5048850;28;20013;-82
2023/08/06 07:14:30;;;;;;;16.33;12.50;;;18.30;99.90;;;;;;5045496;28;20022;-82
2023/08/06 07:16:55;;;;;;;14.80;11.93;;;18.30;99.90;;;;;;5047962;28;20055;-83
2023/08/06 07:19:21;;;;;;;19.17;12.18;;;18.30;99.90;;;;;;5044710;28;20036;-82
2023/08/06 07:21:47;;;;;;;17.98;12.25;;;18.30;99.90;;;;;;5043339;28;20033;-82
2023/08/06 07:24:12;;;;;;;15.77;13.30;;;18.30;99.90;;;;;;5044456;28;20028;-76
2023/08/06 07:26:38;;;;;;;19.67;13.43;;;18.20;99.90;;;;;;5045765;28;20414;-77
2023/08/06 07:29:04;;;;;;;21.05;13.40;;;18.20;99.90;;;;;;5043845;28;20513;-76
2023/08/06 07:31:29;;;;;;;19.50;13.30;;;18.20;99.90;;;;;;5035449;28;20017;-76
2023/08/06 07:33:55;;;;;;;24.00;15.52;;;18.20;99.90;;;;;;5043712;28;20024;-77
2023/08/06 07:36:21;;;;;;;20.08;15.70;;;18.20;99.90;;;;;;5037619;28;20441;-77
2023/08/06 07:38:48;;;;;;;21.85;16.27;;;18.20;99.90;;;;;;5047761;28;20025;-76
2023/08/06 07:41:14;;;;;;;23.23;16.27;;;18.30;99.90;;;;;;5050630;28;20021;-76
2023/08/06 07:43:39;;;;;;;22.08;16.48;;;18.30;99.90;;;;;;5046739;28;20013;-81
2023/08/06 07:46:05;;;;;;;21.92;15.23;;;18.30;99.90;;;;;;5050419;28;20037;-76
2023/08/06 07:48:31;;;;;;;16.65;11.95;;;18.30;99.90;;;;;;5051180;28;20474;-75
2023/08/06 07:50:57;;;;;;;15.63;13.30;;;18.40;99.90;;;;;;5051114;28;20021;-81
2023/08/06 07:53:26;;;;;;;18.88;13.52;;;18.40;99.90;;;;;;5049325;28;20044;-81
2023/08/06 07:55:53;;;;;;;20.00;13.93;;;18.40;99.90;;;;;;5051937;28;20029;-76
2023/08/06 07:58:19;;;;;;;21.48;15.10;;;18.40;99.90;;;;;;5050805;28;20066;-76
2023/08/06 08:00:45;;;;;;;20.40;14.57;;;18.40;99.90;;;;;;5052245;28;20024;-76
2023/08/06 08:03:13;;;;;;;20.33;14.98;;;18.50;99.90;;;;;;5046618;28;20055;-77
2023/08/06 08:05:39;;;;;;;17.60;12.40;;;18.50;99.90;;;;;;5036395;28;20026;-77
2023/08/06 08:08:05;;;;;;;17.05;13.35;;;18.50;99.90;;;;;;5049485;28;20388;-76
2023/08/06 08:10:31;;;;;;;7.88;6.68;;;18.50;99.90;;;;;;5051135;28;20025;-81
2023/08/06 08:12:57;;;;;;;5.07;3.80;;;18.20;99.90;;;;;;5051862;28;20025;-81
2023/08/06 08:15:26;;;;;;;4.75;3.40;;;18.00;99.90;;;;;;5050808;28;20029;-77
2023/08/06 08:17:52;;;;;;;5.88;2.72;;;17.80;99.90;;;;;;5050416;28;20056;-81
2023/08/06 08:20:17;;;;;;;3.67;1.52;;;17.50;99.90;;;;;;5043036;28;20483;-82
2023/08/06 08:22:43;;;;;;;6.20;1.80;;;17.30;99.90;;;;;;5047259;28;20055;-82
2023/08/06 08:25:09;;;;;;;3.85;1.80;;;17.10;99.90;;;;;;5034457;28;20032;-76
2023/08/06 08:27:34;;;;;;;3.30;1.40;;;17.00;99.90;;;;;;5050869;28;20024;-76
2023/08/06 08:30:00;;;;;;;3.92;1.45;;;17.00;99.90;;;;;;5048949;28;20170;-76
2023/08/06 08:32:25;;;;;;;3.33;1.13;;;16.90;99.90;;;;;;5050064;28;20090;-77
2023/08/06 08:34:51;;;;;;;1.08;0.95;;;16.90;99.90;;;;;;5050655;28;20021;-77
2023/08/06 08:37:17;;;;;;;1.63;1.27;;;16.90;99.90;;;;;;5050893;28;20024;-77
2023/08/06 08:39:43;;;;;;;1.83;1.10;;;16.90;99.90;;;;;;5049426;28;20025;-78
2023/08/06 08:42:10;;;;;;;1.60;1.20;;;16.90;99.90;;;;;;5053329;28;20108;-77
2023/08/06 08:44:39;;;;;;;1.60;1.17;;;16.90;99.90;;;;;;5050842;28;20025;-78
2023/08/06 08:47:06;;;;;;;1.60;1.30;;;16.90;99.90;;;;;;5051130;28;20033;-77
2023/08/06 08:49:33;;;;;;;2.35;1.63;;;16.90;99.90;;;;;;5052127;28;20063;-82
2023/08/06 08:52:01;;;;;;;1.33;1.23;;;16.80;99.90;;;;;;5046476;28;20028;-83
2023/08/06 08:54:28;;;;;;;2.38;1.80;;;16.80;99.90;;;;;;5045701;28;20025;-83
2023/08/06 08:56:55;;;;;;;1.40;1.27;;;16.80;99.90;;;;;;5043527;28;20486;-82
2023/08/06 08:59:20;;;;;;;1.23;1.13;;;16.80;99.90;;;;;;5042034;28;20364;-82
2023/08/06 09:01:51;;;;;;;1.35;1.25;;;16.70;99.90;;;;;;5053400;28;20020;-76
2023/08/06 09:04:17;;;;;;;2.35;1.52;;;16.70;99.90;;;;;;5055194;28;20049;-81
2023/08/06 09:06:46;;;;;;;1.88;1.60;;;16.60;99.90;;;;;;5054855;28;20028;-82
2023/08/06 09:09:26;;;;;;;2.13;1.80;;;16.70;99.90;;;;;;5052428;28;20498;-83
2023/08/06 09:11:52;;;;;;;1.90;1.77;;;16.60;99.90;;;;;;5043006;28;20064;-83
2023/08/06 09:14:18;;;;;;;2.97;2.50;;;16.60;99.90;;;;;;5057493;28;20489;-84
2023/08/06 09:16:44;;;;;;;4.43;2.35;;;16.50;99.90;;;;;;5051852;28;20421;-79
2023/08/06 09:19:15;;;;;;;2.60;2.17;;;16.50;99.90;;;;;;5052046;28;20021;-83
2023/08/06 09:21:42;;;;;;;2.28;1.80;;;16.50;99.90;;;;;;5043131;28;20059;-79
2023/08/06 09:24:11;;;;;;;2.80;2.60;;;16.40;99.90;;;;;;5050964;28;20470;-84
2023/08/06 09:26:42;;;;;;;3.63;3.10;;;16.40;99.90;;;;;;5039083;28;20026;-83
2023/08/06 09:29:11;;;;;;;3.65;2.90;;;16.40;99.90;;;;;;5042712;28;20029;-83
2023/08/06 09:31:47;;;;;;;2.38;2.17;;;16.30;99.90;;;;;;5052352;28;20029;-84
2023/08/06 09:34:24;;;;;;;1.98;1.67;;;16.30;99.90;;;;;;5028712;28;20037;-84
2023/08/06 09:36:52;;;;;;;1.38;1.27;;;16.20;99.90;;;;;;5049289;28;20051;-83
2023/08/06 09:39:26;;;;;;;1.27;1.25;;;16.20;99.90;;;;;;5052216;28;20025;-83
2023/08/06 09:41:56;;;;;;;1.23;1.23;;;16.20;99.90;;;;;;5053643;28;20029;-83
2023/08/06 09:44:25;;;;;;;2.70;2.50;;;16.20;99.90;;;;;;5053675;28;20063;-83
2023/08/06 09:47:08;;;;;;;1.65;1.55;;;16.20;99.90;;;;;;5051052;28;20040;-84
2023/08/06 09:49:34;;;;;;;1.13;1.10;;;16.30;99.90;;;;;;5045866;28;20048;-84
2023/08/06 09:52:00;;;;;;;1.27;1.10;;;16.30;99.90;;;;;;5034797;28;20022;-84
2023/08/06 09:54:28;;;;;;;1.40;1.40;;;16.20;99.90;;;;;;5052138;28;20009;-84
2023/08/06 09:56:54;;;;;;;1.38;1.27;;;16.30;99.90;;;;;;5045503;28;20025;-84
2023/08/06 09:59:20;;;;;;;2.63;1.23;;;16.30;99.90;;;;;;5052085;28;20517;-84
2023/08/06 10:01:46;;;;;;;2.33;1.33;;;16.30;99.90;;;;;;5048346;28;20021;-84
2023/08/06 10:04:16;;;;;;;1.25;1.13;;;16.40;99.90;;;;;;5035568;28;20061;-84
2023/08/06 10:06:42;;;;;;;1.27;1.17;;;16.40;99.90;;;;;;5043729;28;20390;-84
2023/08/06 10:09:09;;;;;;;1.15;0.80;;;16.40;99.90;;;;;;5048664;28;20041;-85
2023/08/06 10:11:36;;;;;;;1.02;1.00;;;16.40;99.90;;;;;;5038714;28;21465;-85
2023/08/06 10:14:33;;;;;;;1.75;1.17;;;16.40;99.90;;;;;;5046860;28;20104;-85
2023/08/06 10:16:59;;;;;;;1.27;1.17;;;16.40;99.90;;;;;;5033666;28;20045;-79
2023/08/06 10:19:26;;;;;;;1.30;1.20;;;16.40;99.90;;;;;;5043919;28;20084;-79
2023/08/06 10:22:12;;;;;;;0.77;0.77;;;16.40;99.90;;;;;;5038458;28;20025;-80
2023/08/06 10:25:01;;;;;;;1.48;1.38;;;16.50;99.90;;;;;;5033783;28;20025;-80
2023/08/06 10:27:32;;;;;;;1.15;1.13;;;16.50;99.90;;;;;;5043710;28;20024;-81
2023/08/06 10:30:23;;;;;;;0.88;0.88;;;16.60;99.90;;;;;;5051997;28;20041;-81
2023/08/06 10:32:57;;;;;;;1.70;1.60;;;16.60;99.90;;;;;;5050860;28;20024;-81
2023/08/06 10:35:50;;;;;;;0.75;0.73;;;16.50;99.90;;;;;;5049496;28;20025;-79
2023/08/06 10:38:16;;;;;;;1.55;1.45;;;16.50;99.90;;;;;;5034187;28;20021;-79
2023/08/06 10:40:50;;;;;;;1.30;0.98;;;16.50;99.90;;;;;;5049820;28;20387;-79
2023/08/06 10:43:47;;;;;;;1.02;0.90;;;16.50;99.90;;;;;;5046463;28;20386;-81
2023/08/06 10:46:26;;;;;;;0.80;0.80;;;16.40;99.90;;;;;;5035311;28;20033;-80
2023/08/06 10:48:52;;;;;;;0.77;0.77;;;16.40;99.90;;;;;;5045804;28;20052;-80
2023/08/06 10:51:17;;;;;;;1.70;0.80;;;16.40;99.90;;;;;;5036472;28;20387;-80
2023/08/06 10:53:47;;;;;;;1.52;0.98;;;16.30;99.90;;;;;;5042072;28;20021;-79
2023/08/06 10:56:25;;;;;;;1.27;1.05;;;16.20;99.90;;;;;;5035439;28;20102;-80
2023/08/06 10:58:53;;;;;;;2.00;1.48;;;16.20;99.90;;;;;;5041400;28;20482;-80
2023/08/06 11:01:21;;;;;;;1.13;0.73;;;16.20;99.90;;;;;;5045779;28;20021;-80
2023/08/06 11:03:49;;;;;;;1.95;1.85;;;16.10;99.90;;;;;;5045839;28;20502;-80
2023/08/06 11:06:22;;;;;;;1.60;1.45;;;16.00;99.90;;;;;;5047026;28;20021;-80
2023/08/06 11:08:55;;;;;;;1.63;1.52;;;16.00;99.90;;;;;;5048184;28;20470;-80
2023/08/06 11:11:22;;;;;;;1.95;1.50;;;16.00;99.90;;;;;;5048709;28;20108;-80
2023/08/06 11:13:50;;;;;;;2.05;1.95;;;15.90;99.90;;;;;;5043630;28;20023;-80
2023/08/06 11:16:24;;;;;;;2.45;2.17;;;16.00;99.90;;;;;;5044120;28;20571;-81
2023/08/06 11:18:50;;;;;;;1.88;1.63;;;16.10;99.90;;;;;;5043751;28;20075;-80
2023/08/06 11:21:21;;;;;;;1.80;1.70;;;16.10;99.90;;;;;;5050356;28;20430;-81
2023/08/06 11:23:46;;;;;;;2.22;1.98;;;16.20;99.90;;;;;;5045523;28;20009;-79
2023/08/06 11:26:12;;;;;;;2.22;2.03;;;16.30;99.90;;;;;;5049764;28;20021;-80
2023/08/06 11:28:38;;;;;;;4.10;3.17;;;16.30;99.90;;;;;;5052239;28;20051;-80
2023/08/06 11:31:03;;;;;;;4.30;3.78;;;16.30;99.90;;;;;;5044614;28;20099;-80
2023/08/06 11:33:29;;;;;;;9.20;7.13;;;16.20;99.90;;;;;;5044768;28;20021;-80
2023/08/06 11:35:57;;;;;;;5.00;3.85;;;16.20;99.90;;;;;;5038388;28;20425;-80
2023/08/06 11:38:28;;;;;;;4.55;3.45;;;16.20;99.90;;;;;;5049412;28;20024;-80
2023/08/06 11:40:54;;;;;;;5.25;4.18;;;16.10;99.90;;;;;;5049869;28;20024;-80
2023/08/06 11:43:23;;;;;;;4.82;4.28;;;16.10;99.90;;;;;;5046008;28;20018;-80
2023/08/06 11:45:50;;;;;;;5.65;4.18;;;16.10;99.90;;;;;;5044848;28;20023;-80
2023/08/06 11:48:16;;;;;;;4.68;3.10;;;16.20;99.90;;;;;;5050055;28;20478;-81
2023/08/06 11:50:42;;;;;;;3.20;2.90;;;16.10;99.90;;;;;;5050228;28;20032;-79
2023/08/06 11:53:15;;;;;;;3.88;3.17;;;16.10;99.90;;;;;;5049652;28;20017;-80
2023/08/06 11:55:41;;;;;;;4.28;3.33;;;16.00;99.90;;;;;;5050733;28;20478;-80
2023/08/06 11:58:07;;;;;;;4.22;3.00;;;15.90;99.90;;;;;;5049384;28;20115;-80
2023/08/06 12:00:32;;;;;;;4.70;3.90;;;15.80;99.90;;;;;;5052279;28;20052;-80
2023/08/06 12:02:58;;;;;;;3.05;2.78;;;15.70;99.90;;;;;;5046687;28;20123;-80
2023/08/06 12:05:30;;;;;;;2.88;2.58;;;15.70;99.90;;;;;;5039723;28;20021;-80
2023/08/06 12:07:58;;;;;;;3.67;3.30;;;15.60;99.90;;;;;;5034695;28;20037;-80
2023/08/06 12:10:28;;;;;;;5.15;4.05;;;15.50;99.90;;;;;;5040547;28;20033;-80
2023/08/06 12:12:54;;;;;;;5.28;4.75;;;15.60;99.90;;;;;;5046599;28;20108;-82
2023/08/06 12:15:20;;;;;;;4.78;4.13;;;15.50;99.90;;;;;;5048766;28;20029;-81
2023/08/06 12:17:46;;;;;;;6.47;5.35;;;15.50;99.90;;;;;;5053433;28;20017;-80
2023/08/06 12:20:12;;;;;;;6.75;5.22;;;15.40;99.90;;;;;;5052422;28;20021;-87
2023/08/06 12:22:39;;;;;;;9.88;5.88;;;15.30;99.90;;;;;;5053074;28;20067;-85
2023/08/06 12:25:12;;;;;;;8.88;7.07;;;15.20;99.90;;;;;;5047740;28;20445;-85
2023/08/06 12:27:39;;;;;;;8.68;5.70;;;15.30;99.90;;;;;;5047184;28;20025;-86
2023/08/06 12:30:06;;;;;;;7.30;5.63;;;15.10;99.90;;;;;;5047108;28;20436;-85
2023/08/06 12:32:32;;;;;;;6.50;5.15;;;15.10;99.90;;;;;;5047361;28;20511;-81
2023/08/06 12:34:57;;;;;;;6.65;3.63;;;15.10;99.90;;;;;;5046563;28;20025;-85
2023/08/06 12:37:24;;;;;;;3.13;2.38;;;15.00;99.90;;;;;;5053063;28;20470;-82